sensor_id;sensor_type;location;lat;lon;timestamp;P1;durP1;ratioP1;P2;durP2;ratioP2
78891;SDS011;68280;51.728;5.248;2023-03-03T00:00:20;3.00;;;2.20;;
78891;SDS011;68280;51.728;5.248;2023-03-03T00:02:49;3.40;;;2.30;;
78891;SDS011;68280;51.728;5.248;2023-03-03T00:05:17;3.40;;;2.50;;
78891;SDS011;68280;51.728;5.248;2023-03-03T00:07:45;3.30;;;2.10;;
78891;SDS011;68280;51.728;5.248;2023-03-03T00:10:13;4.10;;;2.00;;
78891;SDS011;68280;51.728;5.248;2023-03-03T00:12:46;2.90;;;2.10;;
78891;SDS011;68280;51.728;5.248;2023-03-03T00:15:17;3.40;;;2.20;;
78891;SDS011;68280;51.728;5.248;2023-03-03T00:17:46;4.20;;;2.70;;
78891;SDS011;68280;51.728;5.248;2023-03-03T00:25:55;3.60;;;2.40;;
78891;SDS011;68280;51.728;5.248;2023-03-03T00:28:24;3.30;;;2.50;;
78891;SDS011;68280;51.728;5.248;2023-03-03T00:30:55;3.10;;;1.90;;
78891;SDS011;68280;51.728;5.248;2023-03-03T00:33:26;5.30;;;2.10;;
78891;SDS011;68280;51.728;5.248;2023-03-03T00:35:56;3.80;;;2.50;;
78891;SDS011;68280;51.728;5.248;2023-03-03T00:38:35;3.90;;;2.30;;
78891;SDS011;68280;51.728;5.248;2023-03-03T00:41:05;3.70;;;2.40;;
78891;SDS011;68280;51.728;5.248;2023-03-03T00:43:41;3.60;;;2.30;;
78891;SDS011;68280;51.728;5.248;2023-03-03T00:46:10;3.10;;;1.90;;
78891;SDS011;68280;51.728;5.248;2023-03-03T00:48:43;3.50;;;2.30;;
78891;SDS011;68280;51.728;5.248;2023-03-03T00:51:19;3.60;;;2.10;;
78891;SDS011;68280;51.728;5.248;2023-03-03T00:53:55;3.20;;;2.40;;
78891;SDS011;68280;51.728;5.248;2023-03-03T00:56:23;3.50;;;2.20;;
78891;SDS011;68280;51.728;5.248;2023-03-03T00:58:52;3.80;;;2.10;;
78891;SDS011;68280;51.728;5.248;2023-03-03T01:01:20;3.70;;;2.10;;
78891;SDS011;68280;51.728;5.248;2023-03-03T01:03:48;3.80;;;2.00;;
78891;SDS011;68280;51.728;5.248;2023-03-03T01:06:17;2.90;;;2.10;;
78891;SDS011;68280;51.728;5.248;2023-03-03T01:08:45;3.20;;;2.20;;
78891;SDS011;68280;51.728;5.248;2023-03-03T01:11:14;3.30;;;2.30;;
78891;SDS011;68280;51.728;5.248;2023-03-03T01:13:47;3.50;;;2.40;;
78891;SDS011;68280;51.728;5.248;2023-03-03T01:16:17;3.10;;;2.20;;
78891;SDS011;68280;51.728;5.248;2023-03-03T01:18:46;2.70;;;1.90;;
78891;SDS011;68280;51.728;5.248;2023-03-03T01:21:14;3.50;;;2.20;;
78891;SDS011;68280;51.728;5.248;2023-03-03T01:23:43;3.20;;;2.50;;
78891;SDS011;68280;51.728;5.248;2023-03-03T01:26:11;2.90;;;2.00;;
78891;SDS011;68280;51.728;5.248;2023-03-03T01:28:39;3.10;;;2.20;;
78891;SDS011;68280;51.728;5.248;2023-03-03T01:31:08;3.40;;;2.40;;
78891;SDS011;68280;51.728;5.248;2023-03-03T01:33:36;3.00;;;2.00;;
78891;SDS011;68280;51.728;5.248;2023-03-03T01:40:55;3.50;;;2.30;;
78891;SDS011;68280;51.728;5.248;2023-03-03T01:43:26;3.50;;;2.30;;
78891;SDS011;68280;51.728;5.248;2023-03-03T01:49:06;3.10;;;1.90;;
78891;SDS011;68280;51.728;5.248;2023-03-03T01:51:41;2.70;;;1.90;;
78891;SDS011;68280;51.728;5.248;2023-03-03T01:54:15;3.60;;;1.90;;
78891;SDS011;68280;51.728;5.248;2023-03-03T01:56:47;2.70;;;2.00;;
78891;SDS011;68280;51.728;5.248;2023-03-03T01:59:19;2.50;;;2.00;;
78891;SDS011;68280;51.728;5.248;2023-03-03T02:01:51;3.10;;;2.10;;
78891;SDS011;68280;51.728;5.248;2023-03-03T02:04:19;2.90;;;2.40;;
78891;SDS011;68280;51.728;5.248;2023-03-03T02:06:49;4.00;;;2.50;;
78891;SDS011;68280;51.728;5.248;2023-03-03T02:09:20;2.60;;;2.00;;
78891;SDS011;68280;51.728;5.248;2023-03-03T02:11:59;3.40;;;2.00;;
78891;SDS011;68280;51.728;5.248;2023-03-03T02:14:30;2.90;;;2.20;;
78891;SDS011;68280;51.728;5.248;2023-03-03T02:16:58;2.40;;;1.90;;
78891;SDS011;68280;51.728;5.248;2023-03-03T02:19:29;2.50;;;1.80;;
78891;SDS011;68280;51.728;5.248;2023-03-03T02:22:04;3.00;;;2.20;;
78891;SDS011;68280;51.728;5.248;2023-03-03T02:24:34;2.50;;;1.80;;
78891;SDS011;68280;51.728;5.248;2023-03-03T02:27:08;2.70;;;2.00;;
78891;SDS011;68280;51.728;5.248;2023-03-03T02:29:36;3.30;;;2.20;;
78891;SDS011;68280;51.728;5.248;2023-03-03T02:32:05;2.90;;;2.10;;
78891;SDS011;68280;51.728;5.248;2023-03-03T02:34:43;3.40;;;2.00;;
78891;SDS011;68280;51.728;5.248;2023-03-03T02:37:13;2.60;;;1.90;;
78891;SDS011;68280;51.728;5.248;2023-03-03T02:39:42;3.20;;;1.90;;
78891;SDS011;68280;51.728;5.248;2023-03-03T02:42:13;3.30;;;2.00;;
78891;SDS011;68280;51.728;5.248;2023-03-03T02:44:46;3.00;;;1.90;;
78891;SDS011;68280;51.728;5.248;2023-03-03T02:47:14;3.10;;;2.10;;
78891;SDS011;68280;51.728;5.248;2023-03-03T02:49:43;2.60;;;1.80;;
78891;SDS011;68280;51.728;5.248;2023-03-03T02:52:11;2.80;;;2.10;;
78891;SDS011;68280;51.728;5.248;2023-03-03T02:54:39;3.20;;;1.90;;
78891;SDS011;68280;51.728;5.248;2023-03-03T02:57:07;3.50;;;1.90;;
78891;SDS011;68280;51.728;5.248;2023-03-03T02:59:36;3.00;;;2.10;;
78891;SDS011;68280;51.728;5.248;2023-03-03T03:02:04;2.30;;;1.70;;
78891;SDS011;68280;51.728;5.248;2023-03-03T03:04:33;2.30;;;1.60;;
78891;SDS011;68280;51.728;5.248;2023-03-03T03:07:01;2.80;;;1.70;;
78891;SDS011;68280;51.728;5.248;2023-03-03T03:09:29;2.70;;;1.90;;
78891;SDS011;68280;51.728;5.248;2023-03-03T03:11:57;2.70;;;2.00;;
78891;SDS011;68280;51.728;5.248;2023-03-03T03:14:25;2.70;;;1.80;;
78891;SDS011;68280;51.728;5.248;2023-03-03T03:16:54;2.40;;;1.60;;
78891;SDS011;68280;51.728;5.248;2023-03-03T03:19:22;2.20;;;1.90;;
78891;SDS011;68280;51.728;5.248;2023-03-03T03:21:50;2.50;;;1.90;;
78891;SDS011;68280;51.728;5.248;2023-03-03T03:24:18;2.40;;;1.70;;
78891;SDS011;68280;51.728;5.248;2023-03-03T03:26:46;2.90;;;2.40;;
78891;SDS011;68280;51.728;5.248;2023-03-03T03:29:15;2.20;;;1.50;;
78891;SDS011;68280;51.728;5.248;2023-03-03T03:31:43;2.10;;;1.60;;
78891;SDS011;68280;51.728;5.248;2023-03-03T03:34:11;3.40;;;1.90;;
78891;SDS011;68280;51.728;5.248;2023-03-03T03:36:39;3.20;;;1.80;;
78891;SDS011;68280;51.728;5.248;2023-03-03T03:39:08;3.20;;;2.20;;
78891;SDS011;68280;51.728;5.248;2023-03-03T03:41:36;2.50;;;1.90;;
78891;SDS011;68280;51.728;5.248;2023-03-03T03:44:04;2.40;;;1.80;;
78891;SDS011;68280;51.728;5.248;2023-03-03T03:46:32;2.30;;;1.50;;
78891;SDS011;68280;51.728;5.248;2023-03-03T03:49:00;2.40;;;1.80;;
78891;SDS011;68280;51.728;5.248;2023-03-03T03:51:29;2.90;;;1.90;;
78891;SDS011;68280;51.728;5.248;2023-03-03T03:53:57;2.80;;;1.60;;
78891;SDS011;68280;51.728;5.248;2023-03-03T03:56:25;2.20;;;1.50;;
78891;SDS011;68280;51.728;5.248;2023-03-03T03:58:54;3.10;;;1.60;;
78891;SDS011;68280;51.728;5.248;2023-03-03T04:01:22;3.00;;;1.70;;
78891;SDS011;68280;51.728;5.248;2023-03-03T04:03:50;2.20;;;1.70;;
78891;SDS011;68280;51.728;5.248;2023-03-03T04:06:19;2.60;;;1.80;;
78891;SDS011;68280;51.728;5.248;2023-03-03T04:08:47;3.10;;;2.00;;
78891;SDS011;68280;51.728;5.248;2023-03-03T04:11:15;2.20;;;1.80;;
78891;SDS011;68280;51.728;5.248;2023-03-03T04:13:43;2.30;;;1.80;;
78891;SDS011;68280;51.728;5.248;2023-03-03T04:16:12;2.90;;;1.50;;
78891;SDS011;68280;51.728;5.248;2023-03-03T04:18:40;2.10;;;1.50;;
78891;SDS011;68280;51.728;5.248;2023-03-03T04:21:10;2.80;;;1.90;;
78891;SDS011;68280;51.728;5.248;2023-03-03T04:23:40;2.40;;;1.80;;
78891;SDS011;68280;51.728;5.248;2023-03-03T04:26:08;3.20;;;2.10;;
78891;SDS011;68280;51.728;5.248;2023-03-03T04:28:36;2.80;;;1.70;;
78891;SDS011;68280;51.728;5.248;2023-03-03T04:31:05;2.10;;;1.50;;
78891;SDS011;68280;51.728;5.248;2023-03-03T04:33:33;2.40;;;1.70;;
78891;SDS011;68280;51.728;5.248;2023-03-03T04:36:01;2.50;;;1.70;;
78891;SDS011;68280;51.728;5.248;2023-03-03T04:38:30;3.90;;;1.70;;
78891;SDS011;68280;51.728;5.248;2023-03-03T04:41:00;2.80;;;1.80;;
78891;SDS011;68280;51.728;5.248;2023-03-03T04:43:28;2.50;;;1.70;;
78891;SDS011;68280;51.728;5.248;2023-03-03T04:45:56;2.60;;;1.70;;
78891;SDS011;68280;51.728;5.248;2023-03-03T04:48:25;2.70;;;1.70;;
78891;SDS011;68280;51.728;5.248;2023-03-03T04:50:53;2.50;;;1.70;;
78891;SDS011;68280;51.728;5.248;2023-03-03T04:53:22;2.50;;;1.80;;
78891;SDS011;68280;51.728;5.248;2023-03-03T04:55:50;2.40;;;1.90;;
78891;SDS011;68280;51.728;5.248;2023-03-03T04:58:19;2.40;;;1.70;;
78891;SDS011;68280;51.728;5.248;2023-03-03T05:00:51;3.40;;;1.70;;
78891;SDS011;68280;51.728;5.248;2023-03-03T05:03:21;2.50;;;1.80;;
78891;SDS011;68280;51.728;5.248;2023-03-03T05:05:49;2.60;;;1.60;;
78891;SDS011;68280;51.728;5.248;2023-03-03T05:08:18;3.00;;;2.00;;
78891;SDS011;68280;51.728;5.248;2023-03-03T05:10:47;2.70;;;1.60;;
78891;SDS011;68280;51.728;5.248;2023-03-03T05:13:18;2.60;;;1.70;;
78891;SDS011;68280;51.728;5.248;2023-03-03T05:15:49;3.10;;;1.80;;
78891;SDS011;68280;51.728;5.248;2023-03-03T05:18:19;2.60;;;1.60;;
78891;SDS011;68280;51.728;5.248;2023-03-03T05:20:48;2.70;;;2.10;;
78891;SDS011;68280;51.728;5.248;2023-03-03T05:23:17;3.00;;;1.80;;
78891;SDS011;68280;51.728;5.248;2023-03-03T05:25:45;2.40;;;1.60;;
78891;SDS011;68280;51.728;5.248;2023-03-03T05:28:14;2.30;;;1.60;;
78891;SDS011;68280;51.728;5.248;2023-03-03T05:30:43;2.70;;;1.50;;
78891;SDS011;68280;51.728;5.248;2023-03-03T05:33:13;2.60;;;1.90;;
78891;SDS011;68280;51.728;5.248;2023-03-03T05:35:42;3.10;;;2.10;;
78891;SDS011;68280;51.728;5.248;2023-03-03T05:38:10;2.30;;;1.60;;
78891;SDS011;68280;51.728;5.248;2023-03-03T05:40:39;2.90;;;1.80;;
78891;SDS011;68280;51.728;5.248;2023-03-03T05:43:07;3.20;;;1.80;;
78891;SDS011;68280;51.728;5.248;2023-03-03T05:45:35;2.80;;;1.80;;
78891;SDS011;68280;51.728;5.248;2023-03-03T05:48:04;2.40;;;1.60;;
78891;SDS011;68280;51.728;5.248;2023-03-03T05:50:32;2.80;;;2.20;;
78891;SDS011;68280;51.728;5.248;2023-03-03T05:53:01;3.00;;;1.90;;
78891;SDS011;68280;51.728;5.248;2023-03-03T05:55:30;4.10;;;2.00;;
78891;SDS011;68280;51.728;5.248;2023-03-03T05:57:58;3.00;;;1.90;;
78891;SDS011;68280;51.728;5.248;2023-03-03T06:00:26;3.30;;;1.80;;
78891;SDS011;68280;51.728;5.248;2023-03-03T06:02:58;2.90;;;1.80;;
78891;SDS011;68280;51.728;5.248;2023-03-03T06:05:26;3.40;;;2.00;;
78891;SDS011;68280;51.728;5.248;2023-03-03T06:07:54;3.20;;;1.90;;
78891;SDS011;68280;51.728;5.248;2023-03-03T06:10:23;2.80;;;1.90;;
78891;SDS011;68280;51.728;5.248;2023-03-03T06:12:51;4.00;;;1.90;;
78891;SDS011;68280;51.728;5.248;2023-03-03T06:15:19;4.80;;;2.50;;
78891;SDS011;68280;51.728;5.248;2023-03-03T06:17:47;3.40;;;2.20;;
78891;SDS011;68280;51.728;5.248;2023-03-03T06:20:16;6.80;;;2.10;;
78891;SDS011;68280;51.728;5.248;2023-03-03T06:22:44;2.50;;;1.40;;
78891;SDS011;68280;51.728;5.248;2023-03-03T06:25:12;2.90;;;1.80;;
78891;SDS011;68280;51.728;5.248;2023-03-03T06:27:41;3.00;;;1.80;;
78891;SDS011;68280;51.728;5.248;2023-03-03T06:30:10;3.10;;;1.80;;
78891;SDS011;68280;51.728;5.248;2023-03-03T06:32:39;4.90;;;1.80;;
78891;SDS011;68280;51.728;5.248;2023-03-03T06:35:08;4.90;;;1.70;;
78891;SDS011;68280;51.728;5.248;2023-03-03T06:37:36;5.70;;;2.10;;
78891;SDS011;68280;51.728;5.248;2023-03-03T06:40:06;3.60;;;2.00;;
78891;SDS011;68280;51.728;5.248;2023-03-03T06:42:35;4.50;;;2.00;;
78891;SDS011;68280;51.728;5.248;2023-03-03T06:45:04;5.90;;;1.60;;
78891;SDS011;68280;51.728;5.248;2023-03-03T06:47:33;3.90;;;1.80;;
78891;SDS011;68280;51.728;5.248;2023-03-03T06:50:02;3.30;;;1.80;;
78891;SDS011;68280;51.728;5.248;2023-03-03T06:52:31;3.20;;;2.00;;
78891;SDS011;68280;51.728;5.248;2023-03-03T06:55:00;5.20;;;1.80;;
78891;SDS011;68280;51.728;5.248;2023-03-03T06:57:37;4.90;;;2.00;;
78891;SDS011;68280;51.728;5.248;2023-03-03T07:00:11;4.30;;;2.10;;
78891;SDS011;68280;51.728;5.248;2023-03-03T07:02:43;6.50;;;2.10;;
78891;SDS011;68280;51.728;5.248;2023-03-03T07:05:13;6.30;;;1.90;;
78891;SDS011;68280;51.728;5.248;2023-03-03T07:07:43;4.20;;;1.90;;
78891;SDS011;68280;51.728;5.248;2023-03-03T07:10:17;4.80;;;1.80;;
78891;SDS011;68280;51.728;5.248;2023-03-03T07:12:49;5.90;;;1.70;;
78891;SDS011;68280;51.728;5.248;2023-03-03T07:15:18;4.80;;;2.00;;
78891;SDS011;68280;51.728;5.248;2023-03-03T07:20:18;7.30;;;2.10;;
78891;SDS011;68280;51.728;5.248;2023-03-03T07:22:48;3.90;;;1.70;;
78891;SDS011;68280;51.728;5.248;2023-03-03T07:25:21;3.20;;;1.70;;
78891;SDS011;68280;51.728;5.248;2023-03-03T07:27:56;4.30;;;1.80;;
78891;SDS011;68280;51.728;5.248;2023-03-03T07:30:37;3.70;;;1.90;;
78891;SDS011;68280;51.728;5.248;2023-03-03T07:33:07;3.40;;;1.40;;
78891;SDS011;68280;51.728;5.248;2023-03-03T07:35:45;3.60;;;1.90;;
78891;SDS011;68280;51.728;5.248;2023-03-03T07:38:19;3.00;;;1.50;;
78891;SDS011;68280;51.728;5.248;2023-03-03T07:45:45;4.10;;;1.80;;
78891;SDS011;68280;51.728;5.248;2023-03-03T07:48:16;2.50;;;1.40;;
78891;SDS011;68280;51.728;5.248;2023-03-03T07:50:49;3.70;;;1.50;;
78891;SDS011;68280;51.728;5.248;2023-03-03T07:53:21;4.40;;;1.70;;
78891;SDS011;68280;51.728;5.248;2023-03-03T07:55:53;2.40;;;1.50;;
78891;SDS011;68280;51.728;5.248;2023-03-03T07:58:22;2.70;;;1.50;;
78891;SDS011;68280;51.728;5.248;2023-03-03T08:03:57;3.40;;;1.70;;
78891;SDS011;68280;51.728;5.248;2023-03-03T08:15:18;2.10;;;1.70;;
78891;SDS011;68280;51.728;5.248;2023-03-03T08:17:49;2.20;;;1.40;;
78891;SDS011;68280;51.728;5.248;2023-03-03T08:23:20;2.00;;;1.00;;
78891;SDS011;68280;51.728;5.248;2023-03-03T08:25:49;3.60;;;1.30;;
78891;SDS011;68280;51.728;5.248;2023-03-03T08:28:18;2.50;;;1.30;;
78891;SDS011;68280;51.728;5.248;2023-03-03T08:30:48;2.30;;;1.50;;
78891;SDS011;68280;51.728;5.248;2023-03-03T08:33:16;3.60;;;1.60;;
78891;SDS011;68280;51.728;5.248;2023-03-03T08:35:45;3.60;;;1.40;;
78891;SDS011;68280;51.728;5.248;2023-03-03T08:38:14;2.50;;;1.20;;
78891;SDS011;68280;51.728;5.248;2023-03-03T08:40:45;2.30;;;1.30;;
78891;SDS011;68280;51.728;5.248;2023-03-03T08:43:14;2.70;;;1.80;;
78891;SDS011;68280;51.728;5.248;2023-03-03T08:45:43;3.20;;;1.40;;
78891;SDS011;68280;51.728;5.248;2023-03-03T08:48:13;3.50;;;1.40;;
78891;SDS011;68280;51.728;5.248;2023-03-03T08:50:41;3.20;;;1.40;;
78891;SDS011;68280;51.728;5.248;2023-03-03T08:53:11;2.10;;;1.30;;
78891;SDS011;68280;51.728;5.248;2023-03-03T08:55:40;2.70;;;1.30;;
78891;SDS011;68280;51.728;5.248;2023-03-03T08:58:08;2.40;;;1.40;;
78891;SDS011;68280;51.728;5.248;2023-03-03T09:00:37;2.10;;;1.20;;
78891;SDS011;68280;51.728;5.248;2023-03-03T09:03:05;2.20;;;1.10;;
78891;SDS011;68280;51.728;5.248;2023-03-03T09:05:34;2.60;;;1.20;;
78891;SDS011;68280;51.728;5.248;2023-03-03T09:08:04;2.90;;;1.30;;
78891;SDS011;68280;51.728;5.248;2023-03-03T09:10:33;2.00;;;1.10;;
78891;SDS011;68280;51.728;5.248;2023-03-03T09:13:03;2.90;;;1.20;;
78891;SDS011;68280;51.728;5.248;2023-03-03T09:15:39;1.80;;;0.90;;
78891;SDS011;68280;51.728;5.248;2023-03-03T09:18:12;2.10;;;1.10;;
78891;SDS011;68280;51.728;5.248;2023-03-03T09:20:42;2.20;;;1.20;;
78891;SDS011;68280;51.728;5.248;2023-03-03T09:23:23;1.80;;;1.20;;
78891;SDS011;68280;51.728;5.248;2023-03-03T09:26:17;1.80;;;1.20;;
78891;SDS011;68280;51.728;5.248;2023-03-03T09:28:54;2.30;;;1.10;;
78891;SDS011;68280;51.728;5.248;2023-03-03T09:31:25;2.00;;;1.10;;
78891;SDS011;68280;51.728;5.248;2023-03-03T09:34:01;2.10;;;1.00;;
78891;SDS011;68280;51.728;5.248;2023-03-03T09:36:41;1.90;;;1.00;;
78891;SDS011;68280;51.728;5.248;2023-03-03T09:39:12;2.70;;;0.90;;
78891;SDS011;68280;51.728;5.248;2023-03-03T09:47:37;2.60;;;1.20;;
78891;SDS011;68280;51.728;5.248;2023-03-03T09:50:16;1.80;;;1.20;;
78891;SDS011;68280;51.728;5.248;2023-03-03T09:52:57;1.80;;;1.10;;
78891;SDS011;68280;51.728;5.248;2023-03-03T09:55:42;1.30;;;0.90;;
78891;SDS011;68280;51.728;5.248;2023-03-03T09:58:23;2.20;;;1.00;;
78891;SDS011;68280;51.728;5.248;2023-03-03T10:01:11;3.20;;;1.10;;
78891;SDS011;68280;51.728;5.248;2023-03-03T10:03:58;2.10;;;1.00;;
78891;SDS011;68280;51.728;5.248;2023-03-03T10:06:50;1.30;;;0.80;;
78891;SDS011;68280;51.728;5.248;2023-03-03T10:09:34;1.30;;;0.80;;
78891;SDS011;68280;51.728;5.248;2023-03-03T10:12:15;2.10;;;0.90;;
78891;SDS011;68280;51.728;5.248;2023-03-03T10:15:06;1.70;;;1.00;;
78891;SDS011;68280;51.728;5.248;2023-03-03T10:17:49;2.20;;;1.00;;
78891;SDS011;68280;51.728;5.248;2023-03-03T10:20:41;1.80;;;0.90;;
78891;SDS011;68280;51.728;5.248;2023-03-03T10:23:17;1.50;;;0.90;;
78891;SDS011;68280;51.728;5.248;2023-03-03T10:25:52;1.40;;;0.90;;
78891;SDS011;68280;51.728;5.248;2023-03-03T10:28:28;2.00;;;1.10;;
78891;SDS011;68280;51.728;5.248;2023-03-03T10:31:14;1.70;;;1.00;;
78891;SDS011;68280;51.728;5.248;2023-03-03T10:33:49;1.20;;;0.70;;
78891;SDS011;68280;51.728;5.248;2023-03-03T10:36:25;1.30;;;0.80;;
78891;SDS011;68280;51.728;5.248;2023-03-03T10:41:42;2.00;;;1.00;;
78891;SDS011;68280;51.728;5.248;2023-03-03T10:44:33;2.30;;;0.70;;
78891;SDS011;68280;51.728;5.248;2023-03-03T10:47:28;2.10;;;0.70;;
78891;SDS011;68280;51.728;5.248;2023-03-03T10:50:15;1.20;;;0.60;;
78891;SDS011;68280;51.728;5.248;2023-03-03T10:52:50;1.40;;;0.80;;
78891;SDS011;68280;51.728;5.248;2023-03-03T10:55:31;1.60;;;0.60;;
78891;SDS011;68280;51.728;5.248;2023-03-03T10:58:19;1.60;;;0.80;;
78891;SDS011;68280;51.728;5.248;2023-03-03T11:01:00;1.70;;;0.80;;
78891;SDS011;68280;51.728;5.248;2023-03-03T11:03:43;1.20;;;0.60;;
78891;SDS011;68280;51.728;5.248;2023-03-03T11:06:23;1.20;;;0.70;;
78891;SDS011;68280;51.728;5.248;2023-03-03T11:08:55;1.90;;;0.70;;
78891;SDS011;68280;51.728;5.248;2023-03-03T11:11:30;1.60;;;0.90;;
78891;SDS011;68280;51.728;5.248;2023-03-03T11:14:06;1.60;;;0.80;;
78891;SDS011;68280;51.728;5.248;2023-03-03T11:16:43;1.20;;;0.60;;
78891;SDS011;68280;51.728;5.248;2023-03-03T11:19:23;1.30;;;0.80;;
78891;SDS011;68280;51.728;5.248;2023-03-03T11:22:18;1.00;;;0.50;;
78891;SDS011;68280;51.728;5.248;2023-03-03T11:25:00;1.50;;;0.70;;
78891;SDS011;68280;51.728;5.248;2023-03-03T11:27:38;1.80;;;0.70;;
78891;SDS011;68280;51.728;5.248;2023-03-03T11:30:26;0.80;;;0.50;;
78891;SDS011;68280;51.728;5.248;2023-03-03T11:33:01;1.10;;;0.60;;
78891;SDS011;68280;51.728;5.248;2023-03-03T11:35:34;3.20;;;0.80;;
78891;SDS011;68280;51.728;5.248;2023-03-03T11:38:14;1.40;;;0.90;;
78891;SDS011;68280;51.728;5.248;2023-03-03T11:40:54;1.40;;;0.80;;
78891;SDS011;68280;51.728;5.248;2023-03-03T11:43:27;0.90;;;0.60;;
78891;SDS011;68280;51.728;5.248;2023-03-03T11:46:02;1.60;;;0.60;;
78891;SDS011;68280;51.728;5.248;2023-03-03T11:48:37;2.00;;;0.60;;
78891;SDS011;68280;51.728;5.248;2023-03-03T11:51:12;1.60;;;0.80;;
78891;SDS011;68280;51.728;5.248;2023-03-03T11:53:48;1.50;;;0.70;;
78891;SDS011;68280;51.728;5.248;2023-03-03T11:56:23;1.50;;;0.80;;
78891;SDS011;68280;51.728;5.248;2023-03-03T11:59:01;1.20;;;0.60;;
78891;SDS011;68280;51.728;5.248;2023-03-03T12:01:43;1.70;;;0.80;;
78891;SDS011;68280;51.728;5.248;2023-03-03T12:04:19;1.00;;;0.60;;
78891;SDS011;68280;51.728;5.248;2023-03-03T12:06:55;1.50;;;0.90;;
78891;SDS011;68280;51.728;5.248;2023-03-03T12:09:39;1.30;;;0.70;;
78891;SDS011;68280;51.728;5.248;2023-03-03T12:12:19;1.30;;;0.80;;
78891;SDS011;68280;51.728;5.248;2023-03-03T12:14:59;1.80;;;0.90;;
78891;SDS011;68280;51.728;5.248;2023-03-03T12:17:42;1.40;;;0.70;;
78891;SDS011;68280;51.728;5.248;2023-03-03T12:20:27;1.30;;;0.80;;
78891;SDS011;68280;51.728;5.248;2023-03-03T12:23:02;1.30;;;0.80;;
78891;SDS011;68280;51.728;5.248;2023-03-03T12:25:46;1.20;;;0.60;;
78891;SDS011;68280;51.728;5.248;2023-03-03T12:31:00;1.20;;;0.60;;
78891;SDS011;68280;51.728;5.248;2023-03-03T12:33:49;1.40;;;0.80;;
78891;SDS011;68280;51.728;5.248;2023-03-03T12:36:24;1.40;;;0.70;;
78891;SDS011;68280;51.728;5.248;2023-03-03T12:39:09;1.50;;;0.80;;
78891;SDS011;68280;51.728;5.248;2023-03-03T12:41:43;1.20;;;0.70;;
78891;SDS011;68280;51.728;5.248;2023-03-03T12:44:17;1.30;;;0.90;;
78891;SDS011;68280;51.728;5.248;2023-03-03T12:46:54;1.40;;;1.00;;
78891;SDS011;68280;51.728;5.248;2023-03-03T12:49:27;2.40;;;0.80;;
78891;SDS011;68280;51.728;5.248;2023-03-03T12:52:07;1.40;;;0.80;;
78891;SDS011;68280;51.728;5.248;2023-03-03T12:54:48;2.00;;;0.90;;
78891;SDS011;68280;51.728;5.248;2023-03-03T12:57:23;2.00;;;1.00;;
78891;SDS011;68280;51.728;5.248;2023-03-03T13:00:07;1.50;;;0.70;;
78891;SDS011;68280;51.728;5.248;2023-03-03T13:02:58;2.40;;;1.00;;
78891;SDS011;68280;51.728;5.248;2023-03-03T13:05:33;2.00;;;1.00;;
78891;SDS011;68280;51.728;5.248;2023-03-03T13:08:25;2.80;;;1.10;;
78891;SDS011;68280;51.728;5.248;2023-03-03T13:11:16;2.00;;;1.20;;
78891;SDS011;68280;51.728;5.248;2023-03-03T13:13:57;1.30;;;0.80;;
78891;SDS011;68280;51.728;5.248;2023-03-03T13:16:32;1.70;;;0.90;;
78891;SDS011;68280;51.728;5.248;2023-03-03T13:19:05;1.60;;;0.90;;
78891;SDS011;68280;51.728;5.248;2023-03-03T13:21:38;1.90;;;0.90;;
78891;SDS011;68280;51.728;5.248;2023-03-03T13:24:15;2.70;;;0.90;;
78891;SDS011;68280;51.728;5.248;2023-03-03T13:26:50;1.60;;;0.90;;
78891;SDS011;68280;51.728;5.248;2023-03-03T13:29:25;3.00;;;1.00;;
78891;SDS011;68280;51.728;5.248;2023-03-03T13:31:57;1.40;;;0.70;;
78891;SDS011;68280;51.728;5.248;2023-03-03T13:34:33;1.50;;;0.80;;
78891;SDS011;68280;51.728;5.248;2023-03-03T13:37:21;1.30;;;0.80;;
78891;SDS011;68280;51.728;5.248;2023-03-03T13:39:58;1.50;;;0.70;;
78891;SDS011;68280;51.728;5.248;2023-03-03T13:42:35;1.60;;;0.80;;
78891;SDS011;68280;51.728;5.248;2023-03-03T13:45:12;1.50;;;0.80;;
78891;SDS011;68280;51.728;5.248;2023-03-03T13:53:04;1.10;;;0.80;;
78891;SDS011;68280;51.728;5.248;2023-03-03T13:55:51;1.20;;;0.80;;
78891;SDS011;68280;51.728;5.248;2023-03-03T13:58:28;2.00;;;1.00;;
78891;SDS011;68280;51.728;5.248;2023-03-03T14:01:04;2.00;;;0.90;;
78891;SDS011;68280;51.728;5.248;2023-03-03T14:03:48;2.40;;;0.80;;
78891;SDS011;68280;51.728;5.248;2023-03-03T14:06:29;2.10;;;1.00;;
78891;SDS011;68280;51.728;5.248;2023-03-03T14:09:09;1.80;;;0.80;;
78891;SDS011;68280;51.728;5.248;2023-03-03T14:11:47;1.70;;;0.90;;
78891;SDS011;68280;51.728;5.248;2023-03-03T14:17:14;1.40;;;0.90;;
78891;SDS011;68280;51.728;5.248;2023-03-03T14:19:47;1.90;;;0.80;;
78891;SDS011;68280;51.728;5.248;2023-03-03T14:22:27;1.30;;;0.70;;
78891;SDS011;68280;51.728;5.248;2023-03-03T14:25:06;1.10;;;0.70;;
78891;SDS011;68280;51.728;5.248;2023-03-03T14:27:37;2.20;;;0.80;;
78891;SDS011;68280;51.728;5.248;2023-03-03T14:30:25;2.00;;;0.80;;
78891;SDS011;68280;51.728;5.248;2023-03-03T14:32:59;2.40;;;0.80;;
78891;SDS011;68280;51.728;5.248;2023-03-03T14:35:59;1.20;;;0.80;;
78891;SDS011;68280;51.728;5.248;2023-03-03T14:38:37;1.30;;;0.80;;
78891;SDS011;68280;51.728;5.248;2023-03-03T14:47:01;1.20;;;0.70;;
78891;SDS011;68280;51.728;5.248;2023-03-03T14:49:38;1.40;;;0.70;;
78891;SDS011;68280;51.728;5.248;2023-03-03T14:52:11;1.00;;;0.70;;
78891;SDS011;68280;51.728;5.248;2023-03-03T14:54:48;1.50;;;0.80;;
78891;SDS011;68280;51.728;5.248;2023-03-03T14:57:18;1.90;;;0.80;;
78891;SDS011;68280;51.728;5.248;2023-03-03T14:59:58;1.10;;;0.70;;
78891;SDS011;68280;51.728;5.248;2023-03-03T15:02:37;1.50;;;0.80;;
78891;SDS011;68280;51.728;5.248;2023-03-03T15:05:18;1.10;;;0.70;;
78891;SDS011;68280;51.728;5.248;2023-03-03T15:07:50;1.30;;;0.70;;
78891;SDS011;68280;51.728;5.248;2023-03-03T15:10:30;1.00;;;0.50;;
78891;SDS011;68280;51.728;5.248;2023-03-03T15:13:09;1.20;;;0.60;;
78891;SDS011;68280;51.728;5.248;2023-03-03T15:16:02;1.20;;;0.70;;
78891;SDS011;68280;51.728;5.248;2023-03-03T15:18:48;1.50;;;0.80;;
78891;SDS011;68280;51.728;5.248;2023-03-03T15:21:27;1.50;;;0.80;;
78891;SDS011;68280;51.728;5.248;2023-03-03T15:24:00;1.20;;;0.70;;
78891;SDS011;68280;51.728;5.248;2023-03-03T15:26:35;1.20;;;0.60;;
78891;SDS011;68280;51.728;5.248;2023-03-03T15:29:10;1.10;;;0.70;;
78891;SDS011;68280;51.728;5.248;2023-03-03T15:31:48;0.90;;;0.50;;
78891;SDS011;68280;51.728;5.248;2023-03-03T15:34:29;3.20;;;0.90;;
78891;SDS011;68280;51.728;5.248;2023-03-03T15:37:05;1.20;;;0.60;;
78891;SDS011;68280;51.728;5.248;2023-03-03T15:39:44;1.30;;;0.60;;
78891;SDS011;68280;51.728;5.248;2023-03-03T15:42:25;1.30;;;0.50;;
78891;SDS011;68280;51.728;5.248;2023-03-03T15:45:00;1.20;;;0.70;;
78891;SDS011;68280;51.728;5.248;2023-03-03T15:47:40;1.10;;;0.60;;
78891;SDS011;68280;51.728;5.248;2023-03-03T15:50:27;0.90;;;0.60;;
78891;SDS011;68280;51.728;5.248;2023-03-03T15:53:06;1.00;;;0.60;;
78891;SDS011;68280;51.728;5.248;2023-03-03T15:55:49;1.30;;;0.60;;
78891;SDS011;68280;51.728;5.248;2023-03-03T15:58:39;3.30;;;0.70;;
78891;SDS011;68280;51.728;5.248;2023-03-03T16:01:25;1.80;;;0.70;;
78891;SDS011;68280;51.728;5.248;2023-03-03T16:03:59;1.10;;;0.60;;
78891;SDS011;68280;51.728;5.248;2023-03-03T16:06:40;1.20;;;0.60;;
78891;SDS011;68280;51.728;5.248;2023-03-03T16:09:22;1.50;;;0.70;;
78891;SDS011;68280;51.728;5.248;2023-03-03T16:12:02;1.40;;;0.50;;
78891;SDS011;68280;51.728;5.248;2023-03-03T16:14:43;1.20;;;0.70;;
78891;SDS011;68280;51.728;5.248;2023-03-03T16:17:23;1.10;;;0.60;;
78891;SDS011;68280;51.728;5.248;2023-03-03T16:20:00;0.80;;;0.50;;
78891;SDS011;68280;51.728;5.248;2023-03-03T16:22:43;0.90;;;0.50;;
78891;SDS011;68280;51.728;5.248;2023-03-03T16:25:25;1.20;;;0.60;;
78891;SDS011;68280;51.728;5.248;2023-03-03T16:28:03;0.80;;;0.50;;